sensor_id;sensor_type;location;lat;lon;timestamp;P1;durP1;ratioP1;P2;durP2;ratioP2
13051;SDS011;6592;47.484;9.726;2023-08-01T00:00:05;7.55;;;2.03;;
13051;SDS011;6592;47.484;9.726;2023-08-01T00:05:06;5.25;;;2.30;;
13051;SDS011;6592;47.484;9.726;2023-08-01T00:07:36;5.07;;;2.25;;
13051;SDS011;6592;47.484;9.726;2023-08-01T00:10:06;8.13;;;2.53;;
13051;SDS011;6592;47.484;9.726;2023-08-01T00:12:35;6.72;;;2.47;;
13051;SDS011;6592;47.484;9.726;2023-08-01T00:15:04;4.30;;;2.20;;
13051;SDS011;6592;47.484;9.726;2023-08-01T00:17:34;5.35;;;2.35;;
13051;SDS011;6592;47.484;9.726;2023-08-01T00:20:02;5.10;;;2.50;;
13051;SDS011;6592;47.484;9.726;2023-08-01T00:22:31;5.20;;;2.40;;
13051;SDS011;6592;47.484;9.726;2023-08-01T00:25:02;3.95;;;2.13;;
13051;SDS011;6592;47.484;9.726;2023-08-01T00:27:31;6.80;;;2.65;;
13051;SDS011;6592;47.484;9.726;2023-08-01T00:30:06;5.68;;;2.40;;
13051;SDS011;6592;47.484;9.726;2023-08-01T00:32:36;5.90;;;2.40;;
13051;SDS011;6592;47.484;9.726;2023-08-01T00:35:05;7.57;;;2.30;;
13051;SDS011;6592;47.484;9.726;2023-08-01T00:37:34;4.35;;;2.17;;
13051;SDS011;6592;47.484;9.726;2023-08-01T00:40:06;3.60;;;2.05;;
13051;SDS011;6592;47.484;9.726;2023-08-01T00:42:36;5.15;;;2.40;;
13051;SDS011;6592;47.484;9.726;2023-08-01T00:45:05;3.92;;;2.00;;
13051;SDS011;6592;47.484;9.726;2023-08-01T00:47:35;4.03;;;1.98;;
13051;SDS011;6592;47.484;9.726;2023-08-01T00:50:04;3.67;;;2.05;;
13051;SDS011;6592;47.484;9.726;2023-08-01T00:52:34;5.70;;;2.25;;
13051;SDS011;6592;47.484;9.726;2023-08-01T00:55:12;6.57;;;2.30;;
13051;SDS011;6592;47.484;9.726;2023-08-01T00:57:42;6.22;;;2.33;;
13051;SDS011;6592;47.484;9.726;2023-08-01T01:00:11;6.00;;;1.80;;
13051;SDS011;6592;47.484;9.726;2023-08-01T01:02:40;4.45;;;2.33;;
13051;SDS011;6592;47.484;9.726;2023-08-01T01:05:10;4.95;;;2.30;;
13051;SDS011;6592;47.484;9.726;2023-08-01T01:07:38;3.97;;;2.17;;
13051;SDS011;6592;47.484;9.726;2023-08-01T01:10:07;4.80;;;2.25;;
13051;SDS011;6592;47.484;9.726;2023-08-01T01:12:38;3.90;;;2.05;;
13051;SDS011;6592;47.484;9.726;2023-08-01T01:15:06;4.28;;;2.20;;
13051;SDS011;6592;47.484;9.726;2023-08-01T01:17:37;5.38;;;2.17;;
13051;SDS011;6592;47.484;9.726;2023-08-01T01:20:06;4.65;;;2.17;;
13051;SDS011;6592;47.484;9.726;2023-08-01T01:22:37;4.93;;;2.20;;
13051;SDS011;6592;47.484;9.726;2023-08-01T01:25:08;3.95;;;2.10;;
13051;SDS011;6592;47.484;9.726;2023-08-01T01:27:38;3.88;;;1.83;;
13051;SDS011;6592;47.484;9.726;2023-08-01T01:30:07;4.18;;;2.30;;
13051;SDS011;6592;47.484;9.726;2023-08-01T01:32:37;4.28;;;2.17;;
13051;SDS011;6592;47.484;9.726;2023-08-01T01:35:06;5.43;;;2.20;;
13051;SDS011;6592;47.484;9.726;2023-08-01T01:37:36;4.05;;;1.95;;
13051;SDS011;6592;47.484;9.726;2023-08-01T01:40:06;3.72;;;1.90;;
13051;SDS011;6592;47.484;9.726;2023-08-01T01:42:36;4.40;;;2.03;;
13051;SDS011;6592;47.484;9.726;2023-08-01T01:45:05;4.60;;;2.08;;
13051;SDS011;6592;47.484;9.726;2023-08-01T01:47:34;3.88;;;1.98;;
13051;SDS011;6592;47.484;9.726;2023-08-01T01:50:03;4.05;;;2.00;;
13051;SDS011;6592;47.484;9.726;2023-08-01T01:52:33;4.45;;;2.30;;
13051;SDS011;6592;47.484;9.726;2023-08-01T01:55:04;5.63;;;2.40;;
13051;SDS011;6592;47.484;9.726;2023-08-01T01:57:33;4.25;;;1.75;;
13051;SDS011;6592;47.484;9.726;2023-08-01T02:00:03;3.90;;;2.10;;
13051;SDS011;6592;47.484;9.726;2023-08-01T02:02:36;9.85;;;2.10;;
13051;SDS011;6592;47.484;9.726;2023-08-01T02:05:07;4.68;;;1.92;;
13051;SDS011;6592;47.484;9.726;2023-08-01T02:07:35;5.82;;;2.20;;
13051;SDS011;6592;47.484;9.726;2023-08-01T02:10:08;4.50;;;2.00;;
13051;SDS011;6592;47.484;9.726;2023-08-01T02:12:37;4.15;;;2.10;;
13051;SDS011;6592;47.484;9.726;2023-08-01T02:15:06;5.40;;;2.40;;
13051;SDS011;6592;47.484;9.726;2023-08-01T02:17:35;5.32;;;2.22;;
13051;SDS011;6592;47.484;9.726;2023-08-01T02:20:05;5.57;;;2.13;;
13051;SDS011;6592;47.484;9.726;2023-08-01T02:22:34;3.75;;;2.15;;
13051;SDS011;6592;47.484;9.726;2023-08-01T02:25:03;5.07;;;2.25;;
13051;SDS011;6592;47.484;9.726;2023-08-01T02:27:34;4.40;;;2.08;;
13051;SDS011;6592;47.484;9.726;2023-08-01T02:30:03;4.95;;;2.10;;
13051;SDS011;6592;47.484;9.726;2023-08-01T02:32:33;4.68;;;2.30;;
13051;SDS011;6592;47.484;9.726;2023-08-01T02:35:01;5.70;;;2.20;;
13051;SDS011;6592;47.484;9.726;2023-08-01T02:37:30;5.80;;;2.30;;
13051;SDS011;6592;47.484;9.726;2023-08-01T02:39:59;6.07;;;2.17;;
13051;SDS011;6592;47.484;9.726;2023-08-01T02:42:29;4.45;;;2.45;;
13051;SDS011;6592;47.484;9.726;2023-08-01T02:45:00;4.80;;;2.15;;
13051;SDS011;6592;47.484;9.726;2023-08-01T02:47:29;4.10;;;2.08;;
13051;SDS011;6592;47.484;9.726;2023-08-01T02:49:58;5.45;;;1.98;;
13051;SDS011;6592;47.484;9.726;2023-08-01T02:52:26;4.05;;;1.95;;
13051;SDS011;6592;47.484;9.726;2023-08-01T02:54:55;4.57;;;2.33;;
13051;SDS011;6592;47.484;9.726;2023-08-01T02:57:24;4.00;;;2.25;;
13051;SDS011;6592;47.484;9.726;2023-08-01T02:59:52;5.85;;;2.20;;
13051;SDS011;6592;47.484;9.726;2023-08-01T03:02:23;5.18;;;2.40;;
13051;SDS011;6592;47.484;9.726;2023-08-01T03:04:52;3.33;;;2.10;;
13051;SDS011;6592;47.484;9.726;2023-08-01T03:07:20;5.38;;;2.30;;
13051;SDS011;6592;47.484;9.726;2023-08-01T03:09:49;3.95;;;2.30;;
13051;SDS011;6592;47.484;9.726;2023-08-01T03:12:17;5.10;;;2.20;;
13051;SDS011;6592;47.484;9.726;2023-08-01T03:14:47;5.22;;;2.50;;
13051;SDS011;6592;47.484;9.726;2023-08-01T03:17:16;3.75;;;1.92;;
13051;SDS011;6592;47.484;9.726;2023-08-01T03:19:47;5.20;;;2.25;;
13051;SDS011;6592;47.484;9.726;2023-08-01T03:22:16;5.28;;;2.30;;
13051;SDS011;6592;47.484;9.726;2023-08-01T03:24:45;4.22;;;2.08;;
13051;SDS011;6592;47.484;9.726;2023-08-01T03:27:14;3.63;;;1.98;;
13051;SDS011;6592;47.484;9.726;2023-08-01T03:29:42;5.40;;;2.20;;
13051;SDS011;6592;47.484;9.726;2023-08-01T03:32:11;8.52;;;2.42;;
13051;SDS011;6592;47.484;9.726;2023-08-01T03:34:40;4.75;;;2.10;;
13051;SDS011;6592;47.484;9.726;2023-08-01T03:37:11;5.03;;;2.17;;
13051;SDS011;6592;47.484;9.726;2023-08-01T03:39:40;4.30;;;2.20;;
13051;SDS011;6592;47.484;9.726;2023-08-01T03:42:09;6.00;;;2.30;;
13051;SDS011;6592;47.484;9.726;2023-08-01T03:44:39;3.53;;;2.08;;
13051;SDS011;6592;47.484;9.726;2023-08-01T03:47:07;5.03;;;2.22;;
13051;SDS011;6592;47.484;9.726;2023-08-01T03:49:36;5.60;;;2.20;;
13051;SDS011;6592;47.484;9.726;2023-08-01T03:52:07;3.80;;;2.00;;
13051;SDS011;6592;47.484;9.726;2023-08-01T03:54:38;3.90;;;2.08;;
13051;SDS011;6592;47.484;9.726;2023-08-01T03:57:06;4.45;;;2.38;;
13051;SDS011;6592;47.484;9.726;2023-08-01T03:59:35;5.10;;;2.47;;
13051;SDS011;6592;47.484;9.726;2023-08-01T04:02:04;4.40;;;2.28;;
13051;SDS011;6592;47.484;9.726;2023-08-01T04:04:33;4.32;;;2.30;;
13051;SDS011;6592;47.484;9.726;2023-08-01T04:07:02;5.57;;;2.60;;
13051;SDS011;6592;47.484;9.726;2023-08-01T04:09:31;4.32;;;2.25;;
13051;SDS011;6592;47.484;9.726;2023-08-01T04:12:03;4.90;;;2.20;;
13051;SDS011;6592;47.484;9.726;2023-08-01T04:14:33;4.65;;;2.30;;
13051;SDS011;6592;47.484;9.726;2023-08-01T04:17:02;4.45;;;2.35;;
13051;SDS011;6592;47.484;9.726;2023-08-01T04:19:31;5.80;;;2.60;;
13051;SDS011;6592;47.484;9.726;2023-08-01T04:22:00;4.00;;;2.13;;
13051;SDS011;6592;47.484;9.726;2023-08-01T04:24:29;7.07;;;2.40;;
13051;SDS011;6592;47.484;9.726;2023-08-01T04:26:58;6.40;;;2.30;;
13051;SDS011;6592;47.484;9.726;2023-08-01T04:29:29;5.03;;;2.22;;
13051;SDS011;6592;47.484;9.726;2023-08-01T04:31:57;4.13;;;2.30;;
13051;SDS011;6592;47.484;9.726;2023-08-01T04:34:26;5.25;;;2.38;;
13051;SDS011;6592;47.484;9.726;2023-08-01T04:36:55;7.63;;;2.50;;
13051;SDS011;6592;47.484;9.726;2023-08-01T04:39:24;5.30;;;2.50;;
13051;SDS011;6592;47.484;9.726;2023-08-01T04:44:23;6.43;;;2.60;;
13051;SDS011;6592;47.484;9.726;2023-08-01T04:46:54;7.35;;;2.30;;
13051;SDS011;6592;47.484;9.726;2023-08-01T04:49:23;4.05;;;2.05;;
13051;SDS011;6592;47.484;9.726;2023-08-01T04:51:52;4.68;;;2.42;;
13051;SDS011;6592;47.484;9.726;2023-08-01T04:54:20;3.75;;;2.20;;
13051;SDS011;6592;47.484;9.726;2023-08-01T04:56:49;6.22;;;2.60;;
13051;SDS011;6592;47.484;9.726;2023-08-01T04:59:18;6.07;;;2.42;;
13051;SDS011;6592;47.484;9.726;2023-08-01T05:01:47;4.65;;;2.28;;
13051;SDS011;6592;47.484;9.726;2023-08-01T05:04:17;6.45;;;2.28;;
13051;SDS011;6592;47.484;9.726;2023-08-01T05:06:46;5.25;;;2.30;;
13051;SDS011;6592;47.484;9.726;2023-08-01T05:09:15;8.50;;;2.80;;
13051;SDS011;6592;47.484;9.726;2023-08-01T05:11:44;5.35;;;2.47;;
13051;SDS011;6592;47.484;9.726;2023-08-01T05:14:13;4.80;;;2.60;;
13051;SDS011;6592;47.484;9.726;2023-08-01T05:16:42;7.78;;;2.85;;
13051;SDS011;6592;47.484;9.726;2023-08-01T05:19:11;8.55;;;2.90;;
13051;SDS011;6592;47.484;9.726;2023-08-01T05:21:42;5.30;;;2.60;;
13051;SDS011;6592;47.484;9.726;2023-08-01T05:24:11;5.35;;;2.70;;
13051;SDS011;6592;47.484;9.726;2023-08-01T05:26:39;6.95;;;2.72;;
13051;SDS011;6592;47.484;9.726;2023-08-01T05:29:08;6.30;;;2.90;;
13051;SDS011;6592;47.484;9.726;2023-08-01T05:31:37;6.10;;;2.97;;
13051;SDS011;6592;47.484;9.726;2023-08-01T05:34:07;5.50;;;2.67;;
13051;SDS011;6592;47.484;9.726;2023-08-01T05:36:36;7.45;;;2.90;;
13051;SDS011;6592;47.484;9.726;2023-08-01T05:39:07;5.65;;;2.97;;
13051;SDS011;6592;47.484;9.726;2023-08-01T05:41:36;5.28;;;2.72;;
13051;SDS011;6592;47.484;9.726;2023-08-01T05:44:04;4.78;;;2.63;;
13051;SDS011;6592;47.484;9.726;2023-08-01T05:46:33;5.20;;;2.58;;
13051;SDS011;6592;47.484;9.726;2023-08-01T05:49:02;6.75;;;2.70;;
13051;SDS011;6592;47.484;9.726;2023-08-01T05:51:31;5.03;;;2.60;;
13051;SDS011;6592;47.484;9.726;2023-08-01T05:54:00;5.15;;;2.58;;
13051;SDS011;6592;47.484;9.726;2023-08-01T05:56:30;6.40;;;2.67;;
13051;SDS011;6592;47.484;9.726;2023-08-01T05:58:58;4.47;;;2.45;;
13051;SDS011;6592;47.484;9.726;2023-08-01T06:01:27;5.55;;;2.60;;
13051;SDS011;6592;47.484;9.726;2023-08-01T06:03:57;6.32;;;2.50;;
13051;SDS011;6592;47.484;9.726;2023-08-01T06:06:26;5.03;;;2.35;;
13051;SDS011;6592;47.484;9.726;2023-08-01T06:08:55;5.65;;;2.75;;
13051;SDS011;6592;47.484;9.726;2023-08-01T06:11:24;7.72;;;2.65;;
13051;SDS011;6592;47.484;9.726;2023-08-01T06:13:55;7.60;;;2.38;;
13051;SDS011;6592;47.484;9.726;2023-08-01T06:16:24;5.50;;;2.20;;
13051;SDS011;6592;47.484;9.726;2023-08-01T06:18:53;6.20;;;2.72;;
13051;SDS011;6592;47.484;9.726;2023-08-01T06:21:23;6.70;;;2.60;;
13051;SDS011;6592;47.484;9.726;2023-08-01T06:23:52;5.30;;;2.67;;
13051;SDS011;6592;47.484;9.726;2023-08-01T06:26:21;6.97;;;2.42;;
13051;SDS011;6592;47.484;9.726;2023-08-01T06:28:50;5.97;;;2.42;;
13051;SDS011;6592;47.484;9.726;2023-08-01T06:31:21;7.97;;;2.50;;
13051;SDS011;6592;47.484;9.726;2023-08-01T06:33:50;5.60;;;2.53;;
13051;SDS011;6592;47.484;9.726;2023-08-01T06:36:19;5.65;;;2.40;;
13051;SDS011;6592;47.484;9.726;2023-08-01T06:38:51;5.72;;;2.80;;
13051;SDS011;6592;47.484;9.726;2023-08-01T06:41:20;5.82;;;2.20;;
13051;SDS011;6592;47.484;9.726;2023-08-01T06:43:49;5.43;;;2.50;;
13051;SDS011;6592;47.484;9.726;2023-08-01T06:46:18;4.63;;;2.47;;
13051;SDS011;6592;47.484;9.726;2023-08-01T06:48:48;5.70;;;2.65;;
13051;SDS011;6592;47.484;9.726;2023-08-01T06:51:17;5.55;;;2.60;;
13051;SDS011;6592;47.484;9.726;2023-08-01T06:53:47;5.43;;;2.25;;
13051;SDS011;6592;47.484;9.726;2023-08-01T06:56:16;5.07;;;2.40;;
13051;SDS011;6592;47.484;9.726;2023-08-01T06:58:45;7.53;;;2.50;;
13051;SDS011;6592;47.484;9.726;2023-08-01T07:01:14;5.40;;;2.42;;
13051;SDS011;6592;47.484;9.726;2023-08-01T07:03:43;8.10;;;2.33;;
13051;SDS011;6592;47.484;9.726;2023-08-01T07:06:14;4.28;;;2.20;;
13051;SDS011;6592;47.484;9.726;2023-08-01T07:08:43;5.20;;;2.22;;
13051;SDS011;6592;47.484;9.726;2023-08-01T07:11:12;5.22;;;2.40;;
13051;SDS011;6592;47.484;9.726;2023-08-01T07:13:41;4.20;;;2.13;;
13051;SDS011;6592;47.484;9.726;2023-08-01T07:16:10;7.03;;;2.25;;
13051;SDS011;6592;47.484;9.726;2023-08-01T07:18:41;5.13;;;2.05;;
13051;SDS011;6592;47.484;9.726;2023-08-01T07:21:10;4.47;;;1.98;;
13051;SDS011;6592;47.484;9.726;2023-08-01T07:23:41;4.82;;;2.00;;
13051;SDS011;6592;47.484;9.726;2023-08-01T07:26:14;4.75;;;2.15;;
13051;SDS011;6592;47.484;9.726;2023-08-01T07:28:43;7.43;;;2.53;;
13051;SDS011;6592;47.484;9.726;2023-08-01T07:31:12;4.78;;;2.28;;
13051;SDS011;6592;47.484;9.726;2023-08-01T07:33:41;6.75;;;2.55;;
13051;SDS011;6592;47.484;9.726;2023-08-01T07:36:09;5.70;;;2.53;;
13051;SDS011;6592;47.484;9.726;2023-08-01T07:38:38;4.30;;;2.05;;
13051;SDS011;6592;47.484;9.726;2023-08-01T07:41:09;7.60;;;2.13;;
13051;SDS011;6592;47.484;9.726;2023-08-01T07:43:38;6.70;;;2.38;;
13051;SDS011;6592;47.484;9.726;2023-08-01T07:46:08;4.35;;;2.10;;
13051;SDS011;6592;47.484;9.726;2023-08-01T07:48:38;5.90;;;2.53;;
13051;SDS011;6592;47.484;9.726;2023-08-01T07:51:07;6.25;;;2.47;;
13051;SDS011;6592;47.484;9.726;2023-08-01T07:53:38;7.22;;;2.63;;
13051;SDS011;6592;47.484;9.726;2023-08-01T07:56:09;4.63;;;2.40;;
13051;SDS011;6592;47.484;9.726;2023-08-01T07:58:38;5.72;;;2.40;;
13051;SDS011;6592;47.484;9.726;2023-08-01T08:01:07;7.95;;;2.40;;
13051;SDS011;6592;47.484;9.726;2023-08-01T08:03:36;5.20;;;2.33;;
13051;SDS011;6592;47.484;9.726;2023-08-01T08:06:06;7.03;;;2.40;;
13051;SDS011;6592;47.484;9.726;2023-08-01T08:08:35;5.00;;;2.28;;
13051;SDS011;6592;47.484;9.726;2023-08-01T08:11:04;7.07;;;2.33;;
13051;SDS011;6592;47.484;9.726;2023-08-01T08:13:34;5.82;;;2.50;;
13051;SDS011;6592;47.484;9.726;2023-08-01T08:16:04;6.22;;;2.40;;
13051;SDS011;6592;47.484;9.726;2023-08-01T08:18:34;5.72;;;2.40;;
13051;SDS011;6592;47.484;9.726;2023-08-01T08:21:03;4.35;;;2.30;;
13051;SDS011;6592;47.484;9.726;2023-08-01T08:23:32;8.52;;;3.00;;
13051;SDS011;6592;47.484;9.726;2023-08-01T08:26:04;5.05;;;2.40;;
13051;SDS011;6592;47.484;9.726;2023-08-01T08:28:35;6.18;;;2.50;;
13051;SDS011;6592;47.484;9.726;2023-08-01T08:31:06;5.53;;;2.30;;
13051;SDS011;6592;47.484;9.726;2023-08-01T08:33:36;6.70;;;2.45;;
13051;SDS011;6592;47.484;9.726;2023-08-01T08:36:06;5.60;;;2.47;;
13051;SDS011;6592;47.484;9.726;2023-08-01T08:38:35;4.95;;;2.35;;
13051;SDS011;6592;47.484;9.726;2023-08-01T08:41:06;6.20;;;2.33;;
13051;SDS011;6592;47.484;9.726;2023-08-01T08:43:38;4.53;;;2.15;;
13051;SDS011;6592;47.484;9.726;2023-08-01T08:46:09;5.13;;;2.50;;
13051;SDS011;6592;47.484;9.726;2023-08-01T08:48:38;5.55;;;2.78;;
13051;SDS011;6592;47.484;9.726;2023-08-01T08:53:38;6.03;;;2.60;;
13051;SDS011;6592;47.484;9.726;2023-08-01T08:56:11;5.80;;;2.60;;
13051;SDS011;6592;47.484;9.726;2023-08-01T08:58:42;5.93;;;2.72;;
13051;SDS011;6592;47.484;9.726;2023-08-01T09:01:13;7.03;;;2.92;;
13051;SDS011;6592;47.484;9.726;2023-08-01T09:03:43;7.40;;;2.70;;
13051;SDS011;6592;47.484;9.726;2023-08-01T09:06:12;5.57;;;2.90;;
13051;SDS011;6592;47.484;9.726;2023-08-01T09:08:44;6.05;;;2.60;;
13051;SDS011;6592;47.484;9.726;2023-08-01T09:11:19;7.30;;;2.40;;
13051;SDS011;6592;47.484;9.726;2023-08-01T09:13:49;6.05;;;2.60;;
13051;SDS011;6592;47.484;9.726;2023-08-01T09:16:18;5.22;;;2.72;;
13051;SDS011;6592;47.484;9.726;2023-08-01T09:18:48;5.82;;;2.83;;
13051;SDS011;6592;47.484;9.726;2023-08-01T09:21:18;5.47;;;2.47;;
13051;SDS011;6592;47.484;9.726;2023-08-01T09:24:07;5.90;;;2.40;;
13051;SDS011;6592;47.484;9.726;2023-08-01T09:26:38;6.88;;;2.97;;
13051;SDS011;6592;47.484;9.726;2023-08-01T09:29:10;7.68;;;2.80;;
13051;SDS011;6592;47.484;9.726;2023-08-01T09:31:40;5.85;;;2.70;;
13051;SDS011;6592;47.484;9.726;2023-08-01T09:34:17;8.20;;;2.53;;
13051;SDS011;6592;47.484;9.726;2023-08-01T09:36:47;5.35;;;2.75;;
13051;SDS011;6592;47.484;9.726;2023-08-01T09:39:16;10.68;;;2.65;;
13051;SDS011;6592;47.484;9.726;2023-08-01T09:41:46;7.07;;;2.97;;
13051;SDS011;6592;47.484;9.726;2023-08-01T09:44:25;4.80;;;2.20;;
13051;SDS011;6592;47.484;9.726;2023-08-01T09:46:58;6.38;;;2.67;;
13051;SDS011;6592;47.484;9.726;2023-08-01T09:49:28;6.28;;;2.75;;
13051;SDS011;6592;47.484;9.726;2023-08-01T09:51:57;5.70;;;2.40;;
13051;SDS011;6592;47.484;9.726;2023-08-01T09:54:28;6.63;;;2.50;;
13051;SDS011;6592;47.484;9.726;2023-08-01T09:56:57;7.35;;;2.30;;
13051;SDS011;6592;47.484;9.726;2023-08-01T09:59:28;5.60;;;2.22;;
13051;SDS011;6592;47.484;9.726;2023-08-01T10:02:00;5.53;;;2.35;;
13051;SDS011;6592;47.484;9.726;2023-08-01T10:04:31;5.13;;;2.15;;
13051;SDS011;6592;47.484;9.726;2023-08-01T10:07:02;4.68;;;2.33;;
13051;SDS011;6592;47.484;9.726;2023-08-01T10:09:35;4.72;;;2.10;;
13051;SDS011;6592;47.484;9.726;2023-08-01T10:12:05;4.55;;;2.03;;
13051;SDS011;6592;47.484;9.726;2023-08-01T10:17:23;4.88;;;2.38;;
13051;SDS011;6592;47.484;9.726;2023-08-01T10:19:54;5.85;;;2.38;;
13051;SDS011;6592;47.484;9.726;2023-08-01T10:24:54;4.95;;;2.17;;
13051;SDS011;6592;47.484;9.726;2023-08-01T10:27:24;5.28;;;2.30;;
13051;SDS011;6592;47.484;9.726;2023-08-01T10:29:58;5.90;;;2.65;;
13051;SDS011;6592;47.484;9.726;2023-08-01T10:32:28;6.22;;;2.33;;
13051;SDS011;6592;47.484;9.726;2023-08-01T10:35:00;4.65;;;2.35;;
13051;SDS011;6592;47.484;9.726;2023-08-01T10:37:38;5.97;;;2.45;;
13051;SDS011;6592;47.484;9.726;2023-08-01T10:40:08;5.93;;;2.35;;
13051;SDS011;6592;47.484;9.726;2023-08-01T10:42:42;5.82;;;2.55;;
13051;SDS011;6592;47.484;9.726;2023-08-01T10:45:21;6.20;;;2.53;;
13051;SDS011;6592;47.484;9.726;2023-08-01T10:48:05;7.20;;;2.42;;
13051;SDS011;6592;47.484;9.726;2023-08-01T10:50:36;5.63;;;2.70;;
13051;SDS011;6592;47.484;9.726;2023-08-01T10:53:06;8.90;;;2.90;;
13051;SDS011;6592;47.484;9.726;2023-08-01T10:55:40;6.55;;;2.83;;
13051;SDS011;6592;47.484;9.726;2023-08-01T10:58:11;5.43;;;2.30;;
13051;SDS011;6592;47.484;9.726;2023-08-01T11:00:42;5.63;;;2.40;;
13051;SDS011;6592;47.484;9.726;2023-08-01T11:03:11;4.82;;;2.25;;
13051;SDS011;6592;47.484;9.726;2023-08-01T11:05:42;6.00;;;2.25;;
13051;SDS011;6592;47.484;9.726;2023-08-01T11:08:11;4.72;;;2.28;;
13051;SDS011;6592;47.484;9.726;2023-08-01T11:10:40;5.85;;;2.33;;
13051;SDS011;6592;47.484;9.726;2023-08-01T11:13:10;5.45;;;2.60;;
13051;SDS011;6592;47.484;9.726;2023-08-01T11:15:41;5.85;;;2.30;;
13051;SDS011;6592;47.484;9.726;2023-08-01T11:18:11;4.57;;;2.30;;
13051;SDS011;6592;47.484;9.726;2023-08-01T11:20:41;4.20;;;2.17;;
13051;SDS011;6592;47.484;9.726;2023-08-01T11:23:10;5.72;;;2.50;;
13051;SDS011;6592;47.484;9.726;2023-08-01T11:25:42;6.22;;;2.35;;
13051;SDS011;6592;47.484;9.726;2023-08-01T11:28:16;5.13;;;2.58;;
13051;SDS011;6592;47.484;9.726;2023-08-01T11:30:47;5.53;;;2.40;;
13051;SDS011;6592;47.484;9.726;2023-08-01T11:33:18;5.18;;;1.90;;
13051;SDS011;6592;47.484;9.726;2023-08-01T11:35:49;4.97;;;1.88;;
13051;SDS011;6592;47.484;9.726;2023-08-01T11:38:20;3.90;;;1.63;;
13051;SDS011;6592;47.484;9.726;2023-08-01T11:40:50;3.63;;;1.88;;
13051;SDS011;6592;47.484;9.726;2023-08-01T11:43:19;3.92;;;2.00;;
13051;SDS011;6592;47.484;9.726;2023-08-01T11:45:50;3.53;;;1.80;;
13051;SDS011;6592;47.484;9.726;2023-08-01T11:48:21;6.60;;;1.88;;
13051;SDS011;6592;47.484;9.726;2023-08-01T11:50:56;4.70;;;1.90;;
13051;SDS011;6592;47.484;9.726;2023-08-01T11:53:26;3.42;;;1.60;;
13051;SDS011;6592;47.484;9.726;2023-08-01T11:55:56;4.05;;;1.90;;
13051;SDS011;6592;47.484;9.726;2023-08-01T11:58:28;4.88;;;2.15;;
13051;SDS011;6592;47.484;9.726;2023-08-01T12:01:05;5.30;;;1.98;;
13051;SDS011;6592;47.484;9.726;2023-08-01T12:03:42;3.58;;;1.83;;
13051;SDS011;6592;47.484;9.726;2023-08-01T12:06:11;3.45;;;1.77;;
13051;SDS011;6592;47.484;9.726;2023-08-01T12:08:41;4.82;;;1.75;;
13051;SDS011;6592;47.484;9.726;2023-08-01T12:11:18;4.90;;;1.98;;
13051;SDS011;6592;47.484;9.726;2023-08-01T12:13:48;4.35;;;1.77;;
13051;SDS011;6592;47.484;9.726;2023-08-01T12:16:30;5.00;;;2.10;;
13051;SDS011;6592;47.484;9.726;2023-08-01T12:18:59;4.18;;;1.70;;
13051;SDS011;6592;47.484;9.726;2023-08-01T12:21:28;4.70;;;2.20;;
13051;SDS011;6592;47.484;9.726;2023-08-01T12:24:00;4.22;;;1.90;;
13051;SDS011;6592;47.484;9.726;2023-08-01T12:26:29;3.53;;;1.70;;
13051;SDS011;6592;47.484;9.726;2023-08-01T12:28:58;4.05;;;1.60;;
13051;SDS011;6592;47.484;9.726;2023-08-01T12:31:27;6.03;;;2.10;;
13051;SDS011;6592;47.484;9.726;2023-08-01T12:33:58;4.72;;;1.80;;
13051;SDS011;6592;47.484;9.726;2023-08-01T12:36:31;4.55;;;2.13;;
13051;SDS011;6592;47.484;9.726;2023-08-01T12:39:01;5.45;;;1.92;;
13051;SDS011;6592;47.484;9.726;2023-08-01T12:41:30;4.28;;;1.63;;
13051;SDS011;6592;47.484;9.726;2023-08-01T12:44:00;5.75;;;2.30;;
13051;SDS011;6592;47.484;9.726;2023-08-01T12:46:32;4.57;;;1.83;;
13051;SDS011;6592;47.484;9.726;2023-08-01T12:49:00;5.68;;;1.92;;
13051;SDS011;6592;47.484;9.726;2023-08-01T12:51:32;5.57;;;1.85;;
13051;SDS011;6592;47.484;9.726;2023-08-01T12:54:01;3.50;;;1.58;;
13051;SDS011;6592;47.484;9.726;2023-08-01T12:56:30;3.60;;;1.58;;
13051;SDS011;6592;47.484;9.726;2023-08-01T12:59:00;3.20;;;1.60;;
13051;SDS011;6592;47.484;9.726;2023-08-01T13:01:31;4.85;;;1.77;;
13051;SDS011;6592;47.484;9.726;2023-08-01T13:03:59;3.38;;;1.77;;
13051;SDS011;6592;47.484;9.726;2023-08-01T13:06:29;4.20;;;1.75;;
13051;SDS011;6592;47.484;9.726;2023-08-01T13:08:58;5.28;;;1.70;;
13051;SDS011;6592;47.484;9.726;2023-08-01T13:11:27;3.25;;;1.55;;
13051;SDS011;6592;47.484;9.726;2023-08-01T13:13:56;3.25;;;1.60;;
13051;SDS011;6592;47.484;9.726;2023-08-01T13:16:25;2.75;;;1.40;;
13051;SDS011;6592;47.484;9.726;2023-08-01T13:18:57;3.63;;;1.80;;
13051;SDS011;6592;47.484;9.726;2023-08-01T13:21:25;4.25;;;1.77;;
13051;SDS011;6592;47.484;9.726;2023-08-01T13:23:54;4.38;;;1.60;;
13051;SDS011;6592;47.484;9.726;2023-08-01T13:26:23;4.00;;;1.77;;
13051;SDS011;6592;47.484;9.726;2023-08-01T13:28:52;3.35;;;1.63;;
13051;SDS011;6592;47.484;9.726;2023-08-01T13:31:21;3.20;;;1.30;;
13051;SDS011;6592;47.484;9.726;2023-08-01T13:33:51;3.83;;;1.63;;
13051;SDS011;6592;47.484;9.726;2023-08-01T13:36:21;4.03;;;1.60;;
13051;SDS011;6592;47.484;9.726;2023-08-01T13:38:51;3.97;;;1.60;;
13051;SDS011;6592;47.484;9.726;2023-08-01T13:41:20;4.20;;;1.50;;
13051;SDS011;6592;47.484;9.726;2023-08-01T13:43:51;3.10;;;1.50;;
13051;SDS011;6592;47.484;9.726;2023-08-01T13:46:20;3.25;;;1.42;;
13051;SDS011;6592;47.484;9.726;2023-08-01T13:48:52;3.28;;;1.40;;
13051;SDS011;6592;47.484;9.726;2023-08-01T13:51:22;3.03;;;1.17;;
13051;SDS011;6592;47.484;9.726;2023-08-01T13:53:51;3.10;;;1.17;;
13051;SDS011;6592;47.484;9.726;2023-08-01T13:56:20;2.20;;;1.00;;
13051;SDS011;6592;47.484;9.726;2023-08-01T13:58:49;2.78;;;1.05;;
13051;SDS011;6592;47.484;9.726;2023-08-01T14:01:19;3.03;;;1.35;;
13051;SDS011;6592;47.484;9.726;2023-08-01T14:03:49;2.38;;;1.17;;
13051;SDS011;6592;47.484;9.726;2023-08-01T14:06:18;2.28;;;1.00;;
13051;SDS011;6592;47.484;9.726;2023-08-01T14:08:48;2.75;;;1.10;;
13051;SDS011;6592;47.484;9.726;2023-08-01T14:11:17;2.75;;;0.95;;
13051;SDS011;6592;47.484;9.726;2023-08-01T14:13:45;2.63;;;1.05;;
13051;SDS011;6592;47.484;9.726;2023-08-01T14:16:15;2.45;;;1.08;;
13051;SDS011;6592;47.484;9.726;2023-08-01T14:18:44;2.25;;;0.90;;
13051;SDS011;6592;47.484;9.726;2023-08-01T14:21:13;2.10;;;1.00;;
13051;SDS011;6592;47.484;9.726;2023-08-01T14:23:41;2.33;;;0.90;;
13051;SDS011;6592;47.484;9.726;2023-08-01T14:26:12;2.55;;;1.10;;
13051;SDS011;6592;47.484;9.726;2023-08-01T14:28:42;3.55;;;1.35;;
13051;SDS011;6592;47.484;9.726;2023-08-01T14:31:11;3.00;;;1.23;;
13051;SDS011;6592;47.484;9.726;2023-08-01T14:33:41;2.40;;;1.00;;
13051;SDS011;6592;47.484;9.726;2023-08-01T14:36:09;2.40;;;1.23;;
13051;SDS011;6592;47.484;9.726;2023-08-01T14:38:40;3.65;;;1.30;;
13051;SDS011;6592;47.484;9.726;2023-08-01T14:41:09;3.13;;;1.35;;
13051;SDS011;6592;47.484;9.726;2023-08-01T14:44:01;3.17;;;1.48;;
13051;SDS011;6592;47.484;9.726;2023-08-01T14:46:32;4.90;;;1.60;;
13051;SDS011;6592;47.484;9.726;2023-08-01T14:49:02;3.22;;;1.30;;
13051;SDS011;6592;47.484;9.726;2023-08-01T14:51:31;2.60;;;1.13;;
13051;SDS011;6592;47.484;9.726;2023-08-01T14:54:00;3.17;;;1.52;;
13051;SDS011;6592;47.484;9.726;2023-08-01T14:56:30;4.28;;;1.30;;
13051;SDS011;6592;47.484;9.726;2023-08-01T14:59:02;2.42;;;1.05;;
13051;SDS011;6592;47.484;9.726;2023-08-01T15:01:31;5.90;;;1.70;;
13051;SDS011;6592;47.484;9.726;2023-08-01T15:04:00;3.20;;;1.52;;
13051;SDS011;6592;47.484;9.726;2023-08-01T15:06:29;2.75;;;1.30;;
13051;SDS011;6592;47.484;9.726;2023-08-01T15:08:58;2.88;;;1.13;;
13051;SDS011;6592;47.484;9.726;2023-08-01T15:11:27;3.13;;;1.40;;
13051;SDS011;6592;47.484;9.726;2023-08-01T15:13:57;2.38;;;1.20;;
13051;SDS011;6592;47.484;9.726;2023-08-01T15:16:26;2.67;;;1.07;;
13051;SDS011;6592;47.484;9.726;2023-08-01T15:18:55;3.05;;;1.00;;
13051;SDS011;6592;47.484;9.726;2023-08-01T15:21:23;1.85;;;0.90;;
13051;SDS011;6592;47.484;9.726;2023-08-01T15:23:53;2.15;;;0.93;;
13051;SDS011;6592;47.484;9.726;2023-08-01T15:26:21;1.85;;;0.70;;
13051;SDS011;6592;47.484;9.726;2023-08-01T15:28:50;2.25;;;0.90;;